createdAt,value
2017-12-26T00:00:49.330Z,7.05
2017-12-26T00:03:24.405Z,7.05
2017-12-26T00:05:59.565Z,6.98
2017-12-26T00:08:34.128Z,7.04
2017-12-26T00:11:09.096Z,7.02
2017-12-26T00:13:44.054Z,7.06
2017-12-26T00:16:19.081Z,7.09
2017-12-26T00:18:54.041Z,7.05
2017-12-26T00:21:29.012Z,7.05
2017-12-26T00:24:03.877Z,6.96
2017-12-26T00:26:38.948Z,6.88
2017-12-26T00:29:14.012Z,6.83
2017-12-26T00:31:48.976Z,6.87
2017-12-26T00:34:23.932Z,6.85
2017-12-26T00:36:58.911Z,6.80
2017-12-26T00:39:33.768Z,6.81
2017-12-26T00:42:08.842Z,6.77
2017-12-26T00:44:43.715Z,6.81
2017-12-26T00:47:18.688Z,6.80
2017-12-26T00:49:53.348Z,6.74
2017-12-26T00:52:28.124Z,6.78
2017-12-26T00:55:03.232Z,6.84
2017-12-26T00:57:38.037Z,6.85
2017-12-26T01:00:12.610Z,6.87
2017-12-26T01:02:47.989Z,6.79
2017-12-26T01:05:22.891Z,6.78
2017-12-26T01:07:57.673Z,6.75
2017-12-26T01:10:32.425Z,6.74
2017-12-26T01:13:07.410Z,6.73
2017-12-26T01:15:42.100Z,6.83
2017-12-26T01:18:16.932Z,6.86
2017-12-26T01:20:51.886Z,6.74
2017-12-26T01:23:26.817Z,6.73
2017-12-26T01:26:01.876Z,6.66
2017-12-26T01:28:36.951Z,6.67
2017-12-26T01:31:11.805Z,6.67
2017-12-26T01:33:46.773Z,6.69
2017-12-26T01:36:21.990Z,6.60
2017-12-26T01:38:57.153Z,6.60
2017-12-26T01:41:32.259Z,6.49
2017-12-26T01:44:07.236Z,6.45
2017-12-26T01:46:42.119Z,6.46
2017-12-26T01:49:17.083Z,6.47
2017-12-26T01:51:51.931Z,6.44
2017-12-26T01:54:27.111Z,6.44
2017-12-26T01:57:01.940Z,6.31
2017-12-26T01:59:36.953Z,6.28
2017-12-26T02:02:11.825Z,6.30
2017-12-26T02:04:46.541Z,6.22
2017-12-26T02:07:21.605Z,6.12
2017-12-26T02:09:56.565Z,6.08
2017-12-26T02:12:31.639Z,6.04
2017-12-26T02:15:06.797Z,6.04
2017-12-26T02:17:41.863Z,6.05
2017-12-26T02:20:17.064Z,5.90
2017-12-26T02:22:52.116Z,5.89
2017-12-26T02:25:27.076Z,5.86
2017-12-26T02:28:01.885Z,5.90
2017-12-26T02:30:36.643Z,5.85
2017-12-26T02:33:11.837Z,5.69
2017-12-26T02:35:46.597Z,5.73
2017-12-26T02:38:21.494Z,5.77
2017-12-26T02:40:56.352Z,5.79
2017-12-26T02:43:31.220Z,5.74
2017-12-26T02:46:06.082Z,5.72
2017-12-26T02:48:41.103Z,5.77
2017-12-26T02:51:16.068Z,5.68
2017-12-26T02:53:51.132Z,5.73
2017-12-26T02:56:26.022Z,5.71
2017-12-26T02:59:01.187Z,5.70
2017-12-26T03:01:36.048Z,5.61
2017-12-26T03:04:10.976Z,5.65
2017-12-26T03:06:45.536Z,5.68
2017-12-26T03:09:20.611Z,5.74
2017-12-26T03:11:55.420Z,5.72
2017-12-26T03:14:30.528Z,5.53
2017-12-26T03:17:05.511Z,5.62
2017-12-26T03:19:40.700Z,5.69
2017-12-26T03:22:15.693Z,5.58
2017-12-26T03:24:50.409Z,5.57
2017-12-26T03:27:24.864Z,5.58
2017-12-26T03:29:59.828Z,5.45
2017-12-26T03:32:34.601Z,5.42
2017-12-26T03:35:11.237Z,5.38
2017-12-26T03:37:45.605Z,5.39
2017-12-26T03:40:20.400Z,5.32
2017-12-26T03:42:55.388Z,5.39
2017-12-26T03:45:30.088Z,5.51
2017-12-26T03:48:05.106Z,5.51
2017-12-26T03:50:40.181Z,5.52
2017-12-26T03:53:15.157Z,5.46
2017-12-26T03:55:50.006Z,5.42
2017-12-26T03:58:25.082Z,5.43
2017-12-26T04:00:59.898Z,5.51
2017-12-26T04:03:34.967Z,5.54
2017-12-26T04:06:09.920Z,5.58
2017-12-26T04:08:44.888Z,5.63
2017-12-26T04:11:19.753Z,5.64
2017-12-26T04:13:54.721Z,5.61
2017-12-26T04:16:29.583Z,5.61
2017-12-26T04:19:04.660Z,5.64
2017-12-26T04:21:39.141Z,5.65
2017-12-26T04:24:14.042Z,5.64
2017-12-26T04:26:49.048Z,5.61
2017-12-26T04:29:24.150Z,5.64
2017-12-26T04:31:59.219Z,5.70
2017-12-26T04:34:34.220Z,5.79
2017-12-26T04:37:09.088Z,5.84
2017-12-26T04:39:43.860Z,5.86
2017-12-26T04:42:18.944Z,5.94
2017-12-26T04:44:53.837Z,6.02
2017-12-26T04:47:28.713Z,6.00
2017-12-26T04:50:03.459Z,6.04
2017-12-26T04:52:38.489Z,6.07
2017-12-26T04:55:13.525Z,6.12
2017-12-26T04:57:48.471Z,6.15
2017-12-26T05:00:23.381Z,6.21
2017-12-26T05:02:57.949Z,6.28
2017-12-26T05:05:32.913Z,6.25
2017-12-26T05:08:07.890Z,6.26
2017-12-26T05:10:42.816Z,6.33
2017-12-26T05:13:17.747Z,6.38
2017-12-26T05:15:53.050Z,6.38
2017-12-26T05:18:27.922Z,6.45
2017-12-26T05:21:02.780Z,6.54
2017-12-26T05:23:37.698Z,6.63
2017-12-26T05:26:12.651Z,6.64
2017-12-26T05:28:47.686Z,6.69
2017-12-26T05:31:22.841Z,6.70
2017-12-26T05:33:57.808Z,6.73
2017-12-26T05:36:32.869Z,6.76
2017-12-26T05:39:07.951Z,6.75
2017-12-26T05:41:43.104Z,6.82
2017-12-26T05:44:18.178Z,6.73
2017-12-26T05:46:53.032Z,6.77
2017-12-26T05:49:27.908Z,6.75
2017-12-26T05:52:02.664Z,6.75
2017-12-26T05:54:37.632Z,6.86
2017-12-26T05:57:12.691Z,6.96
2017-12-26T05:59:47.843Z,7.01
2017-12-26T06:02:22.729Z,7.06
2017-12-26T06:04:57.825Z,7.14
2017-12-26T06:07:32.728Z,7.20
2017-12-26T06:10:07.924Z,7.35
2017-12-26T06:12:42.955Z,7.44
2017-12-26T06:15:18.057Z,7.50
2017-12-26T06:17:53.032Z,7.56
2017-12-26T06:20:27.557Z,7.61
2017-12-26T06:23:02.741Z,7.68
2017-12-26T06:25:37.550Z,7.75
2017-12-26T06:28:12.521Z,7.82
2017-12-26T06:30:47.305Z,7.87
2017-12-26T06:33:22.310Z,7.91
2017-12-26T06:35:57.156Z,7.91
2017-12-26T06:38:32.030Z,7.95
2017-12-26T06:41:06.941Z,7.97
2017-12-26T06:43:42.008Z,7.98
2017-12-26T06:46:16.972Z,8.02
2017-12-26T06:48:51.806Z,8.05
2017-12-26T06:51:26.712Z,8.06
2017-12-26T06:54:01.801Z,8.10
2017-12-26T06:56:36.590Z,8.08
2017-12-26T06:59:11.551Z,8.15
2017-12-26T07:01:46.417Z,8.19
2017-12-26T07:04:21.293Z,8.22
2017-12-26T07:06:56.176Z,8.34
2017-12-26T07:09:31.073Z,8.41
2017-12-26T07:12:05.953Z,8.47
2017-12-26T07:14:40.895Z,8.53
2017-12-26T07:17:15.779Z,8.61
2017-12-26T07:19:51.061Z,8.66
2017-12-26T07:22:25.720Z,8.66
2017-12-26T07:25:00.632Z,8.71
2017-12-26T07:27:34.933Z,8.79
2017-12-26T07:30:10.128Z,8.84
2017-12-26T07:32:45.033Z,8.89
2017-12-26T07:35:19.929Z,8.92
2017-12-26T07:37:54.693Z,8.97
2017-12-26T07:40:29.784Z,9.01
2017-12-26T07:43:04.745Z,9.04
2017-12-26T07:45:39.611Z,9.08
2017-12-26T07:48:14.684Z,9.10
2017-12-26T07:50:49.687Z,9.12
2017-12-26T07:53:24.613Z,9.13
2017-12-26T07:55:59.598Z,9.13
2017-12-26T07:58:34.497Z,9.07
2017-12-26T08:01:09.352Z,9.05
2017-12-26T08:03:44.241Z,9.04
2017-12-26T08:06:19.153Z,9.05
2017-12-26T08:08:54.112Z,8.98
2017-12-26T08:11:29.166Z,8.84
2017-12-26T08:14:04.041Z,8.80
2017-12-26T08:16:39.005Z,8.73
2017-12-26T08:19:13.968Z,8.63
2017-12-26T08:21:48.834Z,8.53
2017-12-26T08:24:23.705Z,8.46
2017-12-26T08:26:58.851Z,8.42
2017-12-26T08:29:33.884Z,8.34
2017-12-26T08:32:08.592Z,8.27
2017-12-26T08:34:43.628Z,8.22
2017-12-26T08:37:18.553Z,8.21
2017-12-26T08:39:53.745Z,8.18
2017-12-26T08:42:28.827Z,8.18
2017-12-26T08:45:03.665Z,8.14
2017-12-26T08:47:38.708Z,8.10
2017-12-26T08:50:13.732Z,8.08
2017-12-26T08:52:48.805Z,8.05
2017-12-26T08:55:23.667Z,8.06
2017-12-26T08:57:58.757Z,8.04
2017-12-26T09:00:33.645Z,8.00
2017-12-26T09:03:08.612Z,8.05
2017-12-26T09:05:43.478Z,8.01
2017-12-26T09:08:18.132Z,7.97
2017-12-26T09:10:53.060Z,7.97
2017-12-26T09:13:28.140Z,7.95
2017-12-26T09:16:03.056Z,7.86
2017-12-26T09:18:38.012Z,7.84
2017-12-26T09:21:12.963Z,7.81
2017-12-26T09:23:47.997Z,7.79
2017-12-26T09:26:22.953Z,7.76
2017-12-26T09:28:58.228Z,7.74
2017-12-26T09:31:34.125Z,7.74
2017-12-26T09:34:09.236Z,7.68
2017-12-26T09:36:44.481Z,7.64
2017-12-26T09:39:19.038Z,7.58
2017-12-26T09:41:54.044Z,7.57
2017-12-26T09:44:29.150Z,7.56
2017-12-26T09:47:04.152Z,7.55
2017-12-26T09:49:39.133Z,7.54
2017-12-26T09:52:13.912Z,7.53
2017-12-26T09:54:48.781Z,7.59
2017-12-26T09:57:23.643Z,7.60
2017-12-26T09:59:58.561Z,7.52
2017-12-26T10:02:33.549Z,7.51
2017-12-26T10:05:08.620Z,7.52
2017-12-26T10:07:43.568Z,7.52
2017-12-26T10:10:18.573Z,7.55
2017-12-26T10:12:53.643Z,7.55
2017-12-26T10:15:28.636Z,7.60
2017-12-26T10:18:03.499Z,7.56
2017-12-26T10:20:38.417Z,7.58
2017-12-26T10:23:13.244Z,7.60
2017-12-26T10:25:48.254Z,7.60
2017-12-26T10:28:23.110Z,7.55
2017-12-26T10:30:58.090Z,7.57
2017-12-26T10:33:33.473Z,7.60
2017-12-26T10:36:08.394Z,7.54
2017-12-26T10:38:43.307Z,7.53
2017-12-26T10:41:18.374Z,7.54
2017-12-26T10:43:53.599Z,7.52
2017-12-26T10:46:28.377Z,7.53
2017-12-26T10:49:03.376Z,7.56
2017-12-26T10:51:38.276Z,7.58
2017-12-26T10:54:13.268Z,7.59
2017-12-26T10:56:48.166Z,7.57
2017-12-26T10:59:23.289Z,7.67
2017-12-26T11:01:58.366Z,7.70
2017-12-26T11:04:33.460Z,7.70
2017-12-26T11:07:08.321Z,7.70
2017-12-26T11:09:43.302Z,7.69
2017-12-26T11:12:17.703Z,7.67
2017-12-26T11:14:52.573Z,7.67
2017-12-26T11:17:27.270Z,7.69
2017-12-26T11:20:02.062Z,7.70
2017-12-26T11:22:36.872Z,7.73
2017-12-26T11:25:11.662Z,7.79
2017-12-26T11:27:55.766Z,7.80
2017-12-26T11:30:30.541Z,7.78
2017-12-26T11:33:05.663Z,7.72
2017-12-26T11:35:40.549Z,7.71
2017-12-26T11:38:15.438Z,7.73
2017-12-26T11:40:50.308Z,7.75
2017-12-26T11:43:25.268Z,7.74
2017-12-26T11:46:00.246Z,7.78
2017-12-26T11:48:35.126Z,7.79
2017-12-26T11:51:10.297Z,7.85
2017-12-26T11:53:45.176Z,7.87
2017-12-26T11:56:20.360Z,7.86
2017-12-26T11:58:55.312Z,7.87
2017-12-26T12:01:30.357Z,7.86
2017-12-26T12:04:05.165Z,7.87
2017-12-26T12:06:40.059Z,7.88
2017-12-26T12:09:15.021Z,7.88
2017-12-26T12:11:49.994Z,7.86
2017-12-26T12:14:24.962Z,7.86
2017-12-26T12:17:00.055Z,7.86
2017-12-26T12:19:34.919Z,7.88
2017-12-26T12:22:10.687Z,7.90
2017-12-26T12:24:45.248Z,7.88
2017-12-26T12:27:20.268Z,7.88
2017-12-26T12:29:55.237Z,7.93
2017-12-26T12:32:30.046Z,7.95
2017-12-26T12:35:05.019Z,8.08
2017-12-26T12:37:40.072Z,8.29
2017-12-26T12:40:15.501Z,8.49
2017-12-26T12:42:50.763Z,8.59
2017-12-26T12:45:25.758Z,8.64
2017-12-26T12:48:00.518Z,8.56
2017-12-26T12:50:35.605Z,8.48
2017-12-26T12:53:10.470Z,8.41
2017-12-26T12:55:45.447Z,8.39
2017-12-26T12:58:20.397Z,8.33
2017-12-26T13:00:55.470Z,8.26
2017-12-26T13:03:30.382Z,8.24
2017-12-26T13:06:05.505Z,8.19
2017-12-26T13:08:40.422Z,8.16
2017-12-26T13:11:15.421Z,8.15
2017-12-26T13:13:50.297Z,8.18
2017-12-26T13:16:25.493Z,8.21
2017-12-26T13:19:00.658Z,8.28
2017-12-26T13:21:35.525Z,8.30
2017-12-26T13:24:10.595Z,8.36
2017-12-26T13:26:45.660Z,8.46
2017-12-26T13:29:20.622Z,8.42
2017-12-26T13:31:55.647Z,8.46
2017-12-26T13:34:30.450Z,8.36
2017-12-26T13:37:05.630Z,8.29
2017-12-26T13:39:40.617Z,8.23
2017-12-26T13:42:15.445Z,8.16
2017-12-26T13:44:50.260Z,8.16
2017-12-26T13:47:25.216Z,8.11
2017-12-26T13:50:00.292Z,8.11
2017-12-26T13:52:35.077Z,8.05
2017-12-26T13:55:10.168Z,8.01
2017-12-26T13:57:44.836Z,7.99
2017-12-26T14:00:20.405Z,8.01
2017-12-26T14:02:55.184Z,8.08
2017-12-26T14:05:30.115Z,8.06
2017-12-26T14:08:05.125Z,8.01
2017-12-26T14:10:40.149Z,8.05
2017-12-26T14:13:14.905Z,8.08
2017-12-26T14:15:49.813Z,8.10
2017-12-26T14:18:24.984Z,8.12
2017-12-26T14:21:00.057Z,8.10
2017-12-26T14:23:34.964Z,8.09
2017-12-26T14:26:09.933Z,8.09
2017-12-26T14:28:44.736Z,8.05
2017-12-26T14:31:19.950Z,8.06
2017-12-26T14:33:54.735Z,8.00
2017-12-26T14:36:29.456Z,7.99
2017-12-26T14:39:03.911Z,7.99
2017-12-26T14:41:38.485Z,7.97
2017-12-26T14:44:13.194Z,7.96
2017-12-26T14:46:48.169Z,7.92
2017-12-26T14:49:23.425Z,7.91
2017-12-26T14:51:58.321Z,7.85
2017-12-26T14:54:33.020Z,7.80
2017-12-26T14:57:07.993Z,7.79
2017-12-26T14:59:42.892Z,7.79
2017-12-26T15:02:17.752Z,7.76
2017-12-26T15:04:52.420Z,7.77
2017-12-26T15:07:26.790Z,7.72
2017-12-26T15:10:01.543Z,7.69
2017-12-26T15:12:36.474Z,7.73
2017-12-26T15:15:11.283Z,7.69
2017-12-26T15:17:46.062Z,7.67
2017-12-26T15:20:20.877Z,7.65
2017-12-26T15:22:55.756Z,7.60
2017-12-26T15:25:30.724Z,7.59
2017-12-26T15:28:05.316Z,7.59
2017-12-26T15:30:40.253Z,7.56
2017-12-26T15:33:15.141Z,7.58
2017-12-26T15:35:50.124Z,7.55
2017-12-26T15:38:25.197Z,7.53
2017-12-26T15:40:59.991Z,7.50
2017-12-26T15:43:34.999Z,7.53
2017-12-26T15:46:09.765Z,7.44
2017-12-26T15:48:44.675Z,7.44
2017-12-26T15:51:19.447Z,7.43
2017-12-26T15:53:54.773Z,7.38
2017-12-26T15:56:29.661Z,7.36
2017-12-26T15:59:04.432Z,7.39
2017-12-26T16:01:39.505Z,7.35
2017-12-26T16:04:14.447Z,7.38
2017-12-26T16:06:49.391Z,7.40
2017-12-26T16:09:24.384Z,7.35
2017-12-26T16:11:59.162Z,7.34
2017-12-26T16:14:33.929Z,7.31
2017-12-26T16:17:08.884Z,7.26
2017-12-26T16:19:43.861Z,7.24
2017-12-26T16:22:18.826Z,7.27
2017-12-26T16:24:53.779Z,7.29
2017-12-26T16:27:28.543Z,7.26
2017-12-26T16:30:03.276Z,7.26
2017-12-26T16:32:38.327Z,7.26
2017-12-26T16:35:13.189Z,7.23
2017-12-26T16:37:48.213Z,7.17
2017-12-26T16:40:23.272Z,7.21
2017-12-26T16:42:57.719Z,7.19
2017-12-26T16:45:33.216Z,7.17
2017-12-26T16:48:08.613Z,7.22
2017-12-26T16:50:43.491Z,7.21
2017-12-26T16:53:18.483Z,7.19
2017-12-26T16:55:53.342Z,7.14
2017-12-26T16:58:28.213Z,7.15
2017-12-26T17:01:03.280Z,7.15
2017-12-26T17:03:38.136Z,7.15
2017-12-26T17:06:13.264Z,7.13
2017-12-26T17:08:48.125Z,7.10
2017-12-26T17:11:23.014Z,7.11
2017-12-26T17:13:57.992Z,7.10
2017-12-26T17:16:32.771Z,7.08
2017-12-26T17:19:07.637Z,7.01
2017-12-26T17:21:42.328Z,7.01
2017-12-26T17:24:17.192Z,7.00
2017-12-26T17:26:52.293Z,6.96
2017-12-26T17:29:26.997Z,6.97
2017-12-26T17:32:02.072Z,6.96
2017-12-26T17:34:37.032Z,6.94
2017-12-26T17:37:11.801Z,6.97
2017-12-26T17:39:46.617Z,6.99
2017-12-26T17:42:21.580Z,6.98
2017-12-26T17:44:56.536Z,6.99
2017-12-26T17:47:31.465Z,7.02
2017-12-26T17:50:06.345Z,7.01
2017-12-26T17:52:41.350Z,7.02
2017-12-26T17:55:16.296Z,7.02
2017-12-26T17:57:51.304Z,6.99
2017-12-26T18:00:26.068Z,6.95
2017-12-26T18:03:01.128Z,6.89
2017-12-26T18:05:35.908Z,6.88
2017-12-26T18:08:11.068Z,6.87
2017-12-26T18:10:45.972Z,6.81
2017-12-26T18:13:20.810Z,6.77
2017-12-26T18:15:55.732Z,6.79
2017-12-26T18:18:30.713Z,6.79
2017-12-26T18:21:05.895Z,6.67
2017-12-26T18:23:40.700Z,6.64
2017-12-26T18:26:15.646Z,6.59
2017-12-26T18:31:24.317Z,6.54
2017-12-26T18:33:59.020Z,6.50
2017-12-26T18:36:33.892Z,6.42
2017-12-26T18:39:08.747Z,6.39
2017-12-26T18:41:43.527Z,6.39
2017-12-26T18:44:18.314Z,6.42
2017-12-26T18:46:53.256Z,6.42
2017-12-26T18:49:28.312Z,6.40
2017-12-26T18:52:03.485Z,6.37
2017-12-26T18:54:38.351Z,6.30
2017-12-26T18:57:13.319Z,6.34
2017-12-26T18:59:48.076Z,6.39
2017-12-26T19:02:23.070Z,6.32
2017-12-26T19:04:57.732Z,6.35
2017-12-26T19:07:32.713Z,6.35
2017-12-26T19:10:07.561Z,6.38
2017-12-26T19:12:42.682Z,6.37
2017-12-26T19:15:17.593Z,6.38
2017-12-26T19:17:52.380Z,6.41
2017-12-26T19:20:27.473Z,6.42
2017-12-26T19:23:02.360Z,6.41
2017-12-26T19:25:37.544Z,6.44
2017-12-26T19:28:12.443Z,6.46
2017-12-26T19:30:47.596Z,6.39
2017-12-26T19:33:23.510Z,6.42
2017-12-26T19:35:57.852Z,6.40
2017-12-26T19:38:32.696Z,6.40
2017-12-26T19:41:07.216Z,6.40
2017-12-26T19:43:42.181Z,6.34
2017-12-26T19:46:17.145Z,6.33
2017-12-26T19:48:52.122Z,6.37
2017-12-26T19:51:27.020Z,6.33
2017-12-26T19:54:01.929Z,6.30
2017-12-26T19:56:36.721Z,6.33
2017-12-26T19:59:11.701Z,6.32
2017-12-26T20:01:46.865Z,6.31
2017-12-26T20:04:21.622Z,6.31
2017-12-26T20:06:56.501Z,6.30
2017-12-26T20:09:31.558Z,6.29
2017-12-26T20:12:06.435Z,6.28
2017-12-26T20:14:41.287Z,6.27
2017-12-26T20:17:16.092Z,6.23
2017-12-26T20:19:50.811Z,6.20
2017-12-26T20:22:25.689Z,6.14
2017-12-26T20:25:00.649Z,6.11
2017-12-26T20:27:35.336Z,6.17
2017-12-26T20:30:10.428Z,6.15
2017-12-26T20:32:45.595Z,6.10
2017-12-26T20:35:20.671Z,6.03
2017-12-26T20:37:55.249Z,6.06
2017-12-26T20:40:30.088Z,6.10
2017-12-26T20:43:05.164Z,6.10
2017-12-26T20:45:39.860Z,6.06
2017-12-26T20:48:14.772Z,6.05
2017-12-26T20:50:49.780Z,6.03
2017-12-26T20:53:24.900Z,6.02
2017-12-26T20:55:59.663Z,6.04
2017-12-26T20:58:34.527Z,6.06
2017-12-26T21:01:09.611Z,6.01
2017-12-26T21:03:44.521Z,6.01
2017-12-26T21:06:19.467Z,6.02
2017-12-26T21:08:54.481Z,6.01
2017-12-26T21:11:29.432Z,6.03
2017-12-26T21:14:04.223Z,5.99
2017-12-26T21:16:39.283Z,6.05
2017-12-26T21:19:14.419Z,6.05
2017-12-26T21:21:49.431Z,6.00
2017-12-26T21:24:24.425Z,5.97
2017-12-26T21:26:59.757Z,5.98
2017-12-26T21:29:34.644Z,5.98
2017-12-26T21:32:09.628Z,5.96
2017-12-26T21:34:44.856Z,6.00
2017-12-26T21:37:19.852Z,6.00
2017-12-26T21:39:55.008Z,6.06
2017-12-26T21:42:30.219Z,6.02
2017-12-26T21:45:04.916Z,6.00
2017-12-26T21:47:39.680Z,6.01
2017-12-26T21:50:14.860Z,5.95
2017-12-26T21:52:49.784Z,6.02
2017-12-26T21:55:24.901Z,6.04
2017-12-26T21:58:00.063Z,6.02
2017-12-26T22:00:34.997Z,6.07
2017-12-26T22:03:10.357Z,6.10
2017-12-26T22:05:45.512Z,6.02
2017-12-26T22:08:20.293Z,6.07
2017-12-26T22:10:55.270Z,6.04
2017-12-26T22:13:30.056Z,5.96
2017-12-26T22:16:05.133Z,5.90
2017-12-26T22:18:39.796Z,5.91
2017-12-26T22:21:14.576Z,5.87
2017-12-26T22:23:49.596Z,5.90
2017-12-26T22:26:24.563Z,5.94
2017-12-26T22:28:59.460Z,6.00
2017-12-26T22:31:34.249Z,5.84
2017-12-26T22:34:09.121Z,5.88
2017-12-26T22:36:44.176Z,5.95
2017-12-26T22:39:19.152Z,5.83
2017-12-26T22:41:54.005Z,5.86
2017-12-26T22:44:28.376Z,5.79
2017-12-26T22:47:03.353Z,5.71
2017-12-26T22:49:38.320Z,5.71
2017-12-26T22:52:13.220Z,5.76
2017-12-26T22:54:48.094Z,5.77
2017-12-26T22:57:22.713Z,5.72
2017-12-26T22:59:57.876Z,5.83
2017-12-26T23:02:32.734Z,5.75
2017-12-26T23:05:07.811Z,5.71
2017-12-26T23:07:42.578Z,5.61
2017-12-26T23:10:17.836Z,5.59
2017-12-26T23:12:52.748Z,5.55
2017-12-26T23:15:32.907Z,5.54
2017-12-26T23:18:27.720Z,5.45
2017-12-26T23:21:02.144Z,5.35
2017-12-26T23:23:42.153Z,5.33
2017-12-26T23:26:21.966Z,5.32
2017-12-26T23:29:01.731Z,5.30
2017-12-26T23:31:41.522Z,5.34
2017-12-26T23:34:21.494Z,5.31
2017-12-26T23:37:01.294Z,5.31
2017-12-26T23:39:41.017Z,5.28
2017-12-26T23:42:20.717Z,5.21
2017-12-26T23:45:01.378Z,5.20
2017-12-26T23:47:40.980Z,5.24
2017-12-26T23:50:20.641Z,5.16
2017-12-26T23:53:00.213Z,5.34
2017-12-26T23:55:40.048Z,5.32
